createdAt,value
2023-05-19T00:01:04.855Z,19.48
2023-05-19T00:03:31.399Z,17.93
2023-05-19T00:05:58.149Z,19.56
2023-05-19T00:08:24.699Z,20.53
2023-05-19T00:10:51.340Z,19.54
2023-05-19T00:13:17.892Z,18.31
2023-05-19T00:15:44.571Z,19.65
2023-05-19T00:18:11.283Z,18.40
2023-05-19T00:20:37.914Z,19.79
2023-05-19T00:23:04.519Z,19.53
2023-05-19T00:25:31.074Z,19.00
2023-05-19T00:27:57.637Z,18.59
2023-05-19T00:30:24.184Z,19.33
2023-05-19T00:32:50.860Z,18.60
2023-05-19T00:35:17.520Z,19.27
2023-05-19T00:37:44.150Z,19.54
2023-05-19T00:40:10.679Z,19.08
2023-05-19T00:42:37.371Z,20.14
2023-05-19T00:45:04.034Z,20.06
2023-05-19T00:47:30.540Z,18.26
2023-05-19T00:49:57.150Z,17.73
2023-05-19T00:52:23.752Z,16.96
2023-05-19T00:54:50.350Z,18.02
2023-05-19T00:57:16.881Z,19.09
2023-05-19T00:59:43.410Z,17.21
2023-05-19T01:02:10.010Z,17.69
2023-05-19T01:04:36.537Z,17.14
2023-05-19T01:07:03.071Z,19.17
2023-05-19T01:09:29.663Z,18.33
2023-05-19T01:11:56.237Z,17.79
2023-05-19T01:14:22.805Z,17.77
2023-05-19T01:16:49.463Z,17.58
2023-05-19T01:19:16.176Z,18.61
2023-05-19T01:21:42.761Z,18.21
2023-05-19T01:24:09.326Z,18.03
2023-05-19T01:26:35.923Z,18.23
2023-05-19T01:29:03.510Z,17.31
2023-05-19T01:31:30.052Z,18.50
2023-05-19T01:33:56.634Z,17.65
2023-05-19T01:36:23.250Z,19.75
2023-05-19T01:38:49.833Z,18.54
2023-05-19T01:41:16.425Z,17.07
2023-05-19T01:43:42.958Z,17.06
2023-05-19T01:46:09.645Z,17.92
2023-05-19T01:48:36.279Z,18.06
2023-05-19T01:51:02.845Z,16.80
2023-05-19T01:53:29.503Z,16.88
2023-05-19T01:55:56.097Z,16.11
2023-05-19T01:58:22.550Z,17.36
2023-05-19T02:00:49.191Z,18.02
2023-05-19T02:03:15.711Z,17.21
2023-05-19T02:05:42.232Z,17.98
2023-05-19T02:08:08.761Z,18.14
2023-05-19T02:10:35.356Z,17.04
2023-05-19T02:13:01.855Z,17.06
2023-05-19T02:15:28.427Z,17.40
2023-05-19T02:17:55.052Z,17.00
2023-05-19T02:20:21.643Z,18.15
2023-05-19T02:22:48.206Z,15.98
2023-05-19T02:25:14.776Z,16.35
2023-05-19T02:27:41.352Z,18.44
2023-05-19T02:30:07.955Z,17.28
2023-05-19T02:32:34.521Z,17.63
2023-05-19T02:35:01.158Z,15.12
2023-05-19T02:37:27.703Z,15.85
2023-05-19T02:39:54.279Z,16.13
2023-05-19T02:42:20.876Z,15.54
2023-05-19T02:44:47.445Z,16.99
2023-05-19T02:47:14.061Z,15.74
2023-05-19T02:49:40.731Z,16.81
2023-05-19T02:52:07.257Z,17.02
2023-05-19T02:54:33.803Z,17.98
2023-05-19T02:57:00.381Z,17.02
2023-05-19T02:59:26.967Z,16.18
2023-05-19T03:01:53.534Z,15.18
2023-05-19T03:04:20.045Z,15.87
2023-05-19T03:06:46.560Z,16.16
2023-05-19T03:09:13.089Z,16.74
2023-05-19T03:11:39.734Z,17.22
2023-05-19T03:14:06.300Z,15.94
2023-05-19T03:16:32.835Z,15.87
2023-05-19T03:18:59.490Z,16.46
2023-05-19T03:21:26.109Z,16.62
2023-05-19T03:23:52.654Z,17.27
2023-05-19T03:26:19.160Z,16.31
2023-05-19T03:28:45.709Z,16.04
2023-05-19T03:31:12.253Z,15.39
2023-05-19T03:33:39.027Z,15.70
2023-05-19T03:36:05.632Z,15.93
2023-05-19T03:38:32.139Z,16.84
2023-05-19T03:40:58.790Z,16.71
2023-05-19T03:43:25.302Z,16.18
2023-05-19T03:45:51.822Z,15.12
2023-05-19T03:48:21.099Z,15.58
2023-05-19T03:50:47.932Z,15.02
2023-05-19T03:53:14.535Z,15.92
2023-05-19T03:55:41.176Z,16.24
2023-05-19T03:58:07.713Z,15.95
2023-05-19T04:00:34.471Z,16.02
2023-05-19T04:03:01.533Z,15.73
2023-05-19T04:05:28.252Z,16.40
2023-05-19T04:07:54.977Z,15.76
2023-05-19T04:10:21.563Z,15.34
2023-05-19T04:12:48.147Z,15.74
2023-05-19T04:15:14.675Z,16.35
2023-05-19T04:17:41.206Z,14.62
2023-05-19T04:20:07.780Z,16.03
2023-05-19T04:22:34.364Z,16.47
2023-05-19T04:25:00.887Z,16.73
2023-05-19T04:27:27.423Z,16.09
2023-05-19T04:29:53.953Z,16.61
2023-05-19T04:32:20.526Z,15.37
2023-05-19T04:34:47.110Z,15.78
2023-05-19T04:37:13.635Z,14.91
2023-05-19T04:39:40.184Z,16.35
2023-05-19T04:42:06.713Z,15.71
2023-05-19T04:44:33.305Z,15.98
2023-05-19T04:46:59.884Z,15.67
2023-05-19T04:49:26.442Z,16.46
2023-05-19T04:51:55.593Z,15.91
2023-05-19T04:54:22.501Z,15.16
2023-05-19T04:56:49.017Z,14.57
2023-05-19T04:59:15.559Z,15.64
2023-05-19T05:01:42.152Z,15.16
2023-05-19T05:04:08.711Z,14.54
2023-05-19T05:06:35.390Z,15.02
2023-05-19T05:09:01.975Z,16.04
2023-05-19T05:11:28.588Z,15.50
2023-05-19T05:13:55.183Z,15.63
2023-05-19T05:16:21.726Z,23.07
2023-05-19T05:18:48.426Z,21.69
2023-05-19T05:21:14.979Z,21.49
2023-05-19T05:23:44.251Z,20.20
2023-05-19T05:26:13.849Z,21.57
2023-05-19T05:28:40.431Z,21.22
2023-05-19T05:31:07.097Z,20.67
2023-05-19T05:33:33.724Z,20.55
2023-05-19T05:36:00.307Z,20.81
2023-05-19T05:38:26.838Z,20.31
2023-05-19T05:40:53.362Z,21.39
2023-05-19T05:43:19.880Z,21.08
2023-05-19T05:45:46.396Z,20.83
2023-05-19T05:48:12.986Z,22.12
2023-05-19T05:50:39.534Z,21.26
2023-05-19T05:53:06.008Z,21.60
2023-05-19T05:55:32.588Z,24.41
2023-05-19T05:57:59.247Z,20.44
2023-05-19T06:00:25.812Z,20.86
2023-05-19T06:02:52.454Z,21.51
2023-05-19T06:05:19.082Z,23.28
2023-05-19T06:07:45.584Z,22.17
2023-05-19T06:10:12.039Z,22.61
2023-05-19T06:12:38.591Z,22.10
2023-05-19T06:15:05.189Z,21.25
2023-05-19T06:17:31.789Z,21.50
2023-05-19T06:19:58.292Z,22.02
2023-05-19T06:22:24.745Z,21.19
2023-05-19T06:24:51.182Z,22.06
2023-05-19T06:27:17.666Z,22.17
2023-05-19T06:29:44.164Z,22.52
2023-05-19T06:32:10.611Z,21.58
2023-05-19T06:34:40.039Z,21.44
2023-05-19T06:37:06.595Z,20.77
2023-05-19T06:39:33.127Z,20.54
2023-05-19T06:41:59.694Z,22.43
2023-05-19T06:44:26.190Z,22.46
2023-05-19T06:46:52.814Z,20.50
2023-05-19T06:49:19.372Z,19.60
2023-05-19T06:51:45.818Z,21.21
2023-05-19T06:54:12.347Z,20.39
2023-05-19T06:56:38.893Z,20.94
2023-05-19T06:59:05.519Z,20.54
2023-05-19T07:01:32.116Z,20.28
2023-05-19T07:03:58.770Z,21.23
2023-05-19T07:06:25.309Z,22.72
2023-05-19T07:08:51.827Z,20.61
2023-05-19T07:11:22.113Z,20.38
2023-05-19T07:13:48.637Z,21.58
2023-05-19T07:16:15.258Z,20.13
2023-05-19T07:18:41.818Z,19.45
2023-05-19T07:21:08.469Z,20.99
2023-05-19T07:23:34.980Z,20.67
2023-05-19T07:26:01.446Z,21.32
2023-05-19T07:28:27.967Z,21.98
2023-05-19T07:30:54.525Z,20.18
2023-05-19T07:33:21.055Z,24.61
2023-05-19T07:35:47.625Z,25.02
2023-05-19T07:38:14.182Z,22.28
2023-05-19T07:40:40.762Z,24.85
2023-05-19T07:43:07.379Z,30.73
2023-05-19T07:45:34.057Z,30.64
2023-05-19T07:48:01.549Z,29.65
2023-05-19T07:50:28.078Z,31.99
2023-05-19T07:52:54.576Z,32.76
2023-05-19T07:55:21.125Z,32.57
2023-05-19T07:57:47.711Z,35.57
2023-05-19T08:00:14.285Z,35.83
2023-05-19T08:02:40.860Z,33.07
2023-05-19T08:05:07.470Z,35.17
2023-05-19T08:07:33.963Z,34.86
2023-05-19T08:10:00.698Z,32.17
2023-05-19T08:12:27.296Z,31.06
2023-05-19T08:14:53.816Z,29.99
2023-05-19T08:17:20.320Z,31.20
2023-05-19T08:19:46.885Z,29.79
2023-05-19T08:22:13.377Z,29.02
2023-05-19T08:24:39.929Z,31.80
2023-05-19T08:27:06.465Z,30.11
2023-05-19T08:29:32.920Z,31.75
2023-05-19T08:31:59.492Z,33.84
2023-05-19T08:34:26.106Z,32.98
2023-05-19T08:36:52.644Z,33.10
2023-05-19T08:39:19.187Z,34.67
2023-05-19T08:41:45.750Z,36.92
2023-05-19T08:44:12.295Z,35.70
2023-05-19T08:46:38.914Z,36.02
2023-05-19T08:49:05.442Z,36.80
2023-05-19T08:51:32.001Z,36.17
2023-05-19T08:53:58.485Z,38.24
2023-05-19T08:56:24.980Z,39.13
2023-05-19T08:58:51.450Z,34.83
2023-05-19T09:01:20.855Z,33.53
2023-05-19T09:03:47.569Z,32.22
2023-05-19T09:06:14.196Z,35.25
2023-05-19T09:08:40.685Z,34.93
2023-05-19T09:11:07.179Z,33.72
2023-05-19T09:13:33.731Z,32.16
2023-05-19T09:16:00.364Z,34.13
2023-05-19T09:18:26.939Z,33.51
2023-05-19T09:20:53.459Z,31.77
2023-05-19T09:23:19.952Z,32.20
2023-05-19T09:25:46.492Z,34.49
2023-05-19T09:28:13.069Z,33.75
2023-05-19T09:30:39.621Z,29.95
2023-05-19T09:33:08.873Z,30.10
2023-05-19T09:35:35.626Z,29.04
2023-05-19T09:38:02.198Z,28.77
2023-05-19T09:40:28.772Z,28.73
2023-05-19T09:42:55.264Z,30.92
2023-05-19T09:45:21.793Z,27.75
2023-05-19T09:47:48.358Z,25.92
2023-05-19T09:50:15.002Z,29.25
2023-05-19T09:52:41.511Z,29.85
2023-05-19T09:55:08.053Z,27.65
2023-05-19T09:57:34.553Z,27.99
2023-05-19T10:00:01.072Z,26.85
2023-05-19T10:02:27.596Z,25.54
2023-05-19T10:04:54.167Z,26.23
2023-05-19T10:07:20.771Z,29.81
2023-05-19T10:09:47.301Z,32.99
2023-05-19T10:12:13.822Z,32.15
2023-05-19T10:14:40.372Z,33.34
2023-05-19T10:17:06.898Z,35.58
2023-05-19T10:19:33.513Z,32.13
2023-05-19T10:22:00.120Z,33.61
2023-05-19T10:24:26.627Z,37.11
2023-05-19T10:26:53.180Z,35.39
2023-05-19T10:29:19.790Z,31.02
2023-05-19T10:31:46.414Z,28.10
2023-05-19T10:34:12.956Z,29.35
2023-05-19T10:36:39.527Z,29.47
2023-05-19T10:39:06.081Z,27.92
2023-05-19T10:41:32.577Z,28.15
2023-05-19T10:44:02.548Z,28.12
2023-05-19T10:46:29.134Z,28.29
2023-05-19T10:48:55.694Z,29.30
2023-05-19T10:51:22.187Z,29.85
2023-05-19T10:53:48.767Z,27.42
2023-05-19T10:56:15.344Z,28.25
2023-05-19T10:58:41.905Z,27.33
2023-05-19T11:01:08.493Z,26.27
2023-05-19T11:03:35.021Z,28.55
2023-05-19T11:06:01.556Z,27.51
2023-05-19T11:08:28.147Z,30.16
2023-05-19T11:10:54.653Z,27.23
2023-05-19T11:13:26.140Z,25.57
2023-05-19T11:15:52.715Z,23.59
2023-05-19T11:18:19.247Z,26.06
2023-05-19T11:20:45.804Z,25.22
2023-05-19T11:23:12.307Z,25.17
2023-05-19T11:25:38.818Z,25.70
2023-05-19T11:28:05.412Z,24.96
2023-05-19T11:30:31.909Z,26.20
2023-05-19T11:32:58.605Z,25.84
2023-05-19T11:35:25.148Z,23.28
2023-05-19T11:37:51.649Z,22.81
2023-05-19T11:40:18.229Z,23.14
2023-05-19T11:42:44.717Z,23.79
2023-05-19T11:45:11.259Z,23.32
2023-05-19T11:47:50.737Z,21.88
2023-05-19T11:50:18.498Z,23.32
2023-05-19T11:52:45.027Z,21.48
2023-05-19T11:55:11.569Z,20.95
2023-05-19T11:57:38.100Z,21.72
2023-05-19T12:00:04.634Z,21.32
2023-05-19T12:02:31.299Z,23.31
2023-05-19T12:04:57.940Z,22.58
2023-05-19T12:07:24.530Z,21.55
2023-05-19T12:09:51.014Z,21.27
2023-05-19T12:12:17.479Z,21.42
2023-05-19T12:14:44.029Z,20.34
2023-05-19T12:17:10.593Z,22.46
2023-05-19T12:19:37.198Z,19.35
2023-05-19T12:22:04.168Z,20.01
2023-05-19T12:24:30.702Z,21.28
2023-05-19T12:26:57.237Z,21.62
2023-05-19T12:29:23.918Z,22.10
2023-05-19T12:31:50.526Z,21.25
2023-05-19T12:34:17.096Z,21.95
2023-05-19T12:36:43.557Z,22.00
2023-05-19T12:39:10.017Z,21.66
2023-05-19T12:41:36.544Z,21.86
2023-05-19T12:44:03.034Z,19.28
2023-05-19T12:46:29.553Z,21.44
2023-05-19T12:48:56.144Z,20.72
2023-05-19T12:51:22.630Z,20.21
2023-05-19T12:53:49.751Z,22.06
2023-05-19T12:56:19.262Z,19.83
2023-05-19T12:58:45.817Z,20.00
2023-05-19T13:01:12.575Z,21.36
2023-05-19T13:03:39.382Z,20.33
2023-05-19T13:06:05.992Z,21.07
2023-05-19T13:08:32.527Z,20.86
2023-05-19T13:10:59.097Z,20.83
2023-05-19T13:13:25.575Z,20.28
2023-05-19T13:15:52.040Z,19.42
2023-05-19T13:18:18.615Z,18.01
2023-05-19T13:20:45.167Z,21.06
2023-05-19T13:23:11.714Z,20.32
2023-05-19T13:25:38.217Z,20.58
2023-05-19T13:28:04.739Z,19.23
2023-05-19T13:30:31.194Z,19.09
2023-05-19T13:32:57.798Z,20.39
2023-05-19T13:35:24.403Z,17.28
2023-05-19T13:37:50.988Z,19.80
2023-05-19T13:40:17.443Z,19.39
2023-05-19T13:42:44.052Z,18.46
2023-05-19T13:45:10.589Z,18.82
2023-05-19T13:47:37.084Z,19.37
2023-05-19T13:50:03.545Z,18.02
2023-05-19T13:52:30.634Z,19.00
2023-05-19T13:54:57.192Z,18.82
2023-05-19T13:57:23.650Z,17.58
2023-05-19T14:00:01.786Z,19.25
2023-05-19T14:02:30.472Z,18.64
2023-05-19T14:04:57.340Z,18.89
2023-05-19T14:07:23.897Z,18.25
2023-05-19T14:09:50.448Z,16.94
2023-05-19T14:12:17.129Z,16.05
2023-05-19T14:14:43.712Z,18.19
2023-05-19T14:17:10.184Z,18.35
2023-05-19T14:19:36.702Z,19.19
2023-05-19T14:22:03.161Z,19.17
2023-05-19T14:24:29.686Z,18.87
2023-05-19T14:26:56.187Z,16.62
2023-05-19T14:29:22.842Z,18.08
2023-05-19T14:31:49.438Z,18.80
2023-05-19T14:34:16.047Z,17.96
2023-05-19T14:36:42.548Z,18.38
2023-05-19T14:39:09.071Z,18.77
2023-05-19T14:41:35.583Z,17.16
2023-05-19T14:44:02.083Z,17.22
2023-05-19T14:46:28.690Z,18.13
2023-05-19T14:48:55.387Z,16.48
2023-05-19T14:51:21.906Z,17.55
2023-05-19T14:53:48.458Z,18.26
2023-05-19T14:56:15.060Z,18.70
2023-05-19T14:58:41.607Z,17.99
2023-05-19T15:01:08.212Z,18.69
2023-05-19T15:03:34.802Z,19.77
2023-05-19T15:06:01.390Z,18.63
2023-05-19T15:08:27.979Z,17.60
2023-05-19T15:10:54.538Z,18.83
2023-05-19T15:13:21.073Z,18.16
2023-05-19T15:15:47.657Z,16.65
2023-05-19T15:18:14.252Z,18.75
2023-05-19T15:20:40.860Z,18.69
2023-05-19T15:23:07.470Z,19.58
2023-05-19T15:25:34.042Z,18.31
2023-05-19T15:28:00.562Z,18.96
2023-05-19T15:30:27.045Z,19.78
2023-05-19T15:32:55.223Z,18.19
2023-05-19T15:35:22.024Z,18.70
2023-05-19T15:37:48.524Z,18.17
2023-05-19T15:40:15.056Z,17.83
2023-05-19T15:42:41.614Z,19.95
2023-05-19T15:45:08.259Z,19.27
2023-05-19T15:47:34.970Z,18.13
2023-05-19T15:50:01.657Z,17.83
2023-05-19T15:52:28.230Z,17.61
2023-05-19T15:54:57.815Z,17.65
2023-05-19T15:57:24.305Z,19.00
2023-05-19T15:59:50.866Z,17.99
2023-05-19T16:02:18.237Z,17.40
2023-05-19T16:04:44.761Z,19.01
2023-05-19T16:07:11.428Z,19.41
2023-05-19T16:09:38.061Z,18.93
2023-05-19T16:12:04.650Z,18.66
2023-05-19T16:14:31.292Z,17.97
2023-05-19T16:16:57.883Z,19.29
2023-05-19T16:19:24.416Z,19.82
2023-05-19T16:21:50.930Z,20.87
2023-05-19T16:24:17.463Z,18.78
2023-05-19T16:26:43.955Z,19.24
2023-05-19T16:29:10.495Z,19.72
2023-05-19T16:31:37.103Z,21.08
2023-05-19T16:34:03.700Z,19.46
2023-05-19T16:36:30.270Z,19.66
2023-05-19T16:38:56.811Z,20.68
2023-05-19T16:41:23.306Z,20.40
2023-05-19T16:43:49.834Z,21.33
2023-05-19T16:46:16.412Z,21.41
2023-05-19T16:48:43.076Z,21.36
2023-05-19T16:51:09.657Z,21.07
2023-05-19T16:53:36.243Z,21.94
2023-05-19T16:56:02.834Z,21.35
2023-05-19T16:58:30.847Z,22.41
2023-05-19T17:00:57.648Z,23.81
2023-05-19T17:03:24.307Z,23.82
2023-05-19T17:05:50.999Z,23.34
2023-05-19T17:08:17.561Z,24.51
2023-05-19T17:10:44.062Z,24.26
2023-05-19T17:13:10.593Z,24.58
2023-05-19T17:15:37.159Z,26.19
2023-05-19T17:18:03.744Z,24.35
2023-05-19T17:20:30.285Z,24.03
2023-05-19T17:22:56.773Z,25.60
2023-05-19T17:25:26.148Z,24.94
2023-05-19T17:27:53.008Z,23.92
2023-05-19T17:30:19.625Z,24.38
2023-05-19T17:32:46.337Z,26.85
2023-05-19T17:35:12.986Z,27.17
2023-05-19T17:37:39.540Z,27.62
2023-05-19T17:40:06.092Z,29.13
2023-05-19T17:42:33.089Z,31.34
2023-05-19T17:44:59.663Z,35.67
2023-05-19T17:47:26.285Z,37.61
2023-05-19T17:49:52.830Z,38.25
2023-05-19T17:52:19.396Z,37.81
2023-05-19T17:54:45.937Z,39.45
2023-05-19T17:57:12.503Z,38.24
2023-05-19T17:59:38.975Z,44.98
2023-05-19T18:02:05.590Z,50.42
2023-05-19T18:04:32.156Z,166.92
2023-05-19T18:06:58.731Z,296.05
2023-05-19T18:09:27.918Z,279.20
2023-05-19T18:11:55.372Z,247.60
2023-05-19T18:14:22.039Z,227.22
2023-05-19T18:16:48.743Z,209.81
2023-05-19T18:19:15.375Z,187.69
2023-05-19T18:21:41.991Z,182.58
2023-05-19T18:24:08.550Z,179.46
2023-05-19T18:26:35.063Z,174.33
2023-05-19T18:29:01.672Z,172.42
2023-05-19T18:31:28.308Z,171.98
2023-05-19T18:33:54.846Z,168.56
2023-05-19T18:36:21.610Z,166.09
2023-05-19T18:38:48.188Z,169.96
2023-05-19T18:41:14.816Z,166.38
2023-05-19T18:43:41.334Z,166.85
2023-05-19T18:46:07.927Z,166.25
2023-05-19T18:48:34.424Z,164.60
2023-05-19T18:51:00.995Z,161.77
2023-05-19T18:53:27.500Z,159.25
2023-05-19T18:55:54.029Z,155.94
2023-05-19T18:58:20.555Z,159.03
2023-05-19T19:00:47.119Z,158.04
2023-05-19T19:03:13.712Z,155.99
2023-05-19T19:05:40.296Z,156.64
2023-05-19T19:08:06.860Z,151.91
2023-05-19T19:10:33.683Z,154.68
2023-05-19T19:13:00.369Z,153.99
2023-05-19T19:15:26.889Z,151.78
2023-05-19T19:17:53.565Z,149.47
2023-05-19T19:20:20.033Z,152.09
2023-05-19T19:22:46.608Z,148.72
2023-05-19T19:25:13.182Z,147.57
2023-05-19T19:27:39.718Z,144.38
2023-05-19T19:30:06.264Z,146.05
2023-05-19T19:32:32.825Z,146.70
2023-05-19T19:34:59.460Z,140.14
2023-05-19T19:37:26.001Z,140.54
2023-05-19T19:39:52.562Z,140.11
2023-05-19T19:42:19.136Z,138.08
2023-05-19T19:44:45.754Z,137.29
2023-05-19T19:47:12.298Z,139.88
2023-05-19T19:49:38.839Z,138.80
2023-05-19T19:52:05.432Z,136.72
2023-05-19T19:54:31.953Z,134.13
2023-05-19T19:56:58.466Z,134.57
2023-05-19T19:59:25.278Z,132.34
2023-05-19T20:01:52.814Z,136.97
2023-05-19T20:04:19.559Z,129.67
2023-05-19T20:06:46.119Z,129.28
2023-05-19T20:09:12.625Z,130.16
2023-05-19T20:11:39.088Z,127.60
2023-05-19T20:14:05.659Z,110.80
2023-05-19T20:16:32.291Z,108.11
2023-05-19T20:18:58.952Z,105.01
2023-05-19T20:21:25.481Z,103.48
2023-05-19T20:23:52.052Z,105.95
2023-05-19T20:26:18.537Z,102.37
2023-05-19T20:28:45.136Z,103.16
2023-05-19T20:31:11.787Z,109.41
2023-05-19T20:33:38.404Z,113.24
2023-05-19T20:36:05.063Z,110.13
2023-05-19T20:38:31.662Z,111.23
2023-05-19T20:40:58.302Z,106.12
2023-05-19T20:43:24.863Z,107.08
2023-05-19T20:45:51.581Z,105.37
2023-05-19T20:48:18.283Z,108.95
2023-05-19T20:50:45.003Z,104.85
2023-05-19T20:53:11.592Z,109.83
2023-05-19T20:55:38.112Z,106.29
2023-05-19T20:58:04.764Z,104.52
2023-05-19T21:00:31.316Z,103.77
2023-05-19T21:02:58.135Z,106.32
2023-05-19T21:05:24.785Z,105.27
2023-05-19T21:07:51.381Z,104.19
2023-05-19T21:10:18.060Z,108.40
2023-05-19T21:12:44.702Z,101.04
2023-05-19T21:15:11.222Z,101.30
2023-05-19T21:17:37.864Z,106.53
2023-05-19T21:20:04.610Z,97.94
2023-05-19T21:22:31.217Z,99.78
2023-05-19T21:24:57.780Z,102.92
2023-05-19T21:27:24.348Z,100.59
2023-05-19T21:29:50.980Z,98.47
2023-05-19T21:32:17.535Z,98.02
2023-05-19T21:34:44.128Z,99.27
2023-05-19T21:37:10.740Z,95.78
2023-05-19T21:39:37.288Z,99.19
2023-05-19T21:42:03.930Z,99.43
2023-05-19T21:44:30.567Z,96.85
2023-05-19T21:46:57.220Z,95.69
2023-05-19T21:49:23.986Z,94.46
2023-05-19T21:51:50.572Z,96.16
2023-05-19T21:54:17.179Z,94.18
2023-05-19T21:56:43.718Z,93.52
2023-05-19T21:59:10.271Z,93.47
2023-05-19T22:01:36.852Z,94.38
2023-05-19T22:04:03.560Z,94.08
2023-05-19T22:06:30.168Z,95.46
2023-05-19T22:08:56.757Z,89.26
2023-05-19T22:11:23.308Z,93.32
2023-05-19T22:13:49.934Z,87.16
2023-05-19T22:16:16.663Z,93.03
2023-05-19T22:18:43.270Z,89.33
2023-05-19T22:21:09.812Z,90.58
2023-05-19T22:23:36.374Z,89.22
2023-05-19T22:26:02.946Z,87.43
2023-05-19T22:28:29.515Z,85.67
2023-05-19T22:30:56.141Z,88.93
2023-05-19T22:33:22.769Z,91.21
2023-05-19T22:35:49.411Z,86.19
2023-05-19T22:38:16.030Z,88.27
2023-05-19T22:40:42.500Z,85.87
2023-05-19T22:43:11.831Z,84.52
2023-05-19T22:45:38.675Z,87.33
2023-05-19T22:48:05.527Z,86.25
2023-05-19T22:50:32.155Z,82.68
2023-05-19T22:52:58.783Z,85.26
2023-05-19T22:55:25.327Z,83.24
2023-05-19T22:57:51.915Z,84.05
2023-05-19T23:00:18.444Z,82.13
2023-05-19T23:02:45.095Z,84.35
2023-05-19T23:05:11.633Z,87.35
2023-05-19T23:07:38.285Z,83.16
2023-05-19T23:10:04.933Z,82.22
2023-05-19T23:12:31.551Z,84.43
2023-05-19T23:14:58.082Z,80.73
2023-05-19T23:17:24.745Z,82.45
2023-05-19T23:19:51.327Z,83.51
2023-05-19T23:22:17.859Z,79.74
2023-05-19T23:24:44.423Z,81.95
2023-05-19T23:27:10.944Z,81.58
2023-05-19T23:29:37.519Z,80.32
2023-05-19T23:32:04.101Z,78.53
2023-05-19T23:34:30.697Z,80.44
2023-05-19T23:36:57.312Z,83.16
2023-05-19T23:39:23.844Z,78.82
2023-05-19T23:41:50.362Z,82.16
2023-05-19T23:44:16.909Z,80.32
2023-05-19T23:46:43.670Z,78.08
2023-05-19T23:49:10.289Z,80.21
2023-05-19T23:51:36.866Z,81.44
2023-05-19T23:54:03.367Z,79.84
2023-05-19T23:56:29.960Z,80.02
2023-05-19T23:58:56.568Z,78.76
